Time;durP1;ratioP1;P1;durP2;ratioP2;P2;SDS_P1;SDS_P2;PMS_P1;PMS_P2;Temp;Humidity;BMP_temperature;BMP_pressure;BME280_temperature;BME280_humidity;BME280_pressure;Samples;Min_cycle;Max_cycle;Signal;HPM_P1;HPM_P2
2023/01/22 00:02:12;;;;;;;26.30;14.40;;;;;;;2.23;96.90;101410.96;107446;1255;95690;-56
2023/01/22 00:04:48;;;;;;;27.40;15.50;;;;;;;2.18;96.95;101410.30;107634;1254;81369;-56
2023/01/22 00:07:27;;;;;;;25.30;14.70;;;;;;;2.21;97.04;101412.39;107594;1256;82497;-56
2023/01/22 00:10:05;;;;;;;29.90;16.10;;;;;;;2.18;97.03;101413.36;107623;1256;97038;-58
2023/01/22 00:12:42;;;;;;;28.00;15.80;;;;;;;2.15;97.08;101413.73;107747;1256;88054;-58
2023/01/22 00:15:16;;;;;;;30.50;17.00;;;;;;;2.18;97.11;101414.55;107663;1253;94509;-57
2023/01/22 00:17:47;;;;;;;27.60;15.30;;;;;;;2.20;96.97;101414.04;107642;1258;81614;-57
2023/01/22 00:20:19;;;;;;;27.00;14.80;;;;;;;2.20;97.02;101414.76;107669;1255;81367;-55
2023/01/22 00:22:58;;;;;;;25.80;14.60;;;;;;;2.21;96.94;101416.45;107670;1256;99282;-55
2023/01/22 00:25:39;;;;;;;26.70;16.20;;;;;;;2.19;96.92;101415.77;107609;1256;88614;-54
2023/01/22 00:28:13;;;;;;;27.80;15.50;;;;;;;2.19;96.92;101419.29;107556;1257;93007;-56
2023/01/22 00:30:44;;;;;;;;;;;;;;;2.16;96.98;101418.26;107631;1256;81506;-54
2023/01/22 00:33:21;;;;;;;26.40;15.30;;;;;;;2.15;97.09;101414.58;107599;1255;81549;-55
2023/01/22 00:35:57;;;;;;;29.80;16.10;;;;;;;2.11;97.06;101415.58;107646;1253;98647;-59
2023/01/22 00:38:31;;;;;;;27.70;14.50;;;;;;;2.12;97.14;101420.15;107630;1256;88293;-57
2023/01/22 00:41:06;;;;;;;23.90;14.60;;;;;;;2.09;97.08;101419.29;107611;1256;95838;-54
2023/01/22 00:43:45;;;;;;;25.40;14.30;;;;;;;2.01;97.30;101427.52;107559;1254;80901;-54
2023/01/22 00:46:19;;;;;;;27.30;14.70;;;;;;;2.00;97.35;101431.00;107565;1257;83700;-56
2023/01/22 00:48:57;;;;;;;26.50;14.90;;;;;;;1.98;97.14;101430.98;107572;1255;97947;-56
2023/01/22 00:51:38;;;;;;;26.30;15.40;;;;;;;2.02;97.29;101428.90;107563;1254;87950;-56
2023/01/22 00:54:18;;;;;;;24.60;13.30;;;;;;;2.07;97.20;101431.00;107518;1254;94558;-56
2023/01/22 00:56:57;;;;;;;22.70;13.30;;;;;;;2.04;97.25;101435.14;107525;1257;81248;-56
2023/01/22 00:59:37;;;;;;;22.60;13.70;;;;;;;1.98;97.33;101435.90;107565;1254;82475;-58
2023/01/22 01:02:11;;;;;;;21.60;13.50;;;;;;;2.02;97.27;101437.56;107598;1253;99176;-58
2023/01/22 01:04:52;;;;;;;24.10;13.80;;;;;;;2.04;97.35;101445.62;107621;1256;89406;-56
2023/01/22 01:07:31;;;;;;;23.00;13.80;;;;;;;2.01;97.31;101444.20;107607;1254;95194;-56
2023/01/22 01:10:08;;;;;;;24.20;14.50;;;;;;;2.02;97.30;101445.42;107580;1258;79481;-57
2023/01/22 01:12:49;;;;;;;20.50;13.10;;;;;;;2.04;97.12;101448.42;107669;1254;81154;-57
2023/01/22 01:15:33;;;;;;;20.70;12.60;;;;;;;2.06;97.09;101447.11;107600;1256;98641;-55
2023/01/22 01:18:11;;;;;;;21.50;12.70;;;;;;;2.04;97.12;101447.40;107578;1256;88118;-56
2023/01/22 01:20:54;;;;;;;20.10;12.00;;;;;;;2.03;96.98;101447.28;107652;1256;95422;-58
2023/01/22 01:23:32;;;;;;;18.80;11.30;;;;;;;2.04;97.08;101448.84;107601;1254;80695;-58
2023/01/22 01:26:07;;;;;;;20.60;12.50;;;;;;;2.01;97.15;101450.29;107601;1257;82951;-55
2023/01/22 01:28:44;;;;;;;18.20;11.60;;;;;;;2.06;97.06;101459.34;107592;1254;97227;-56
2023/01/22 01:31:25;;;;;;;18.50;11.80;;;;;;;2.06;97.18;101460.73;107632;1254;86673;-55
2023/01/22 01:34:08;;;;;;;18.30;11.80;;;;;;;2.02;97.10;101455.35;107601;1253;93776;-56
2023/01/22 01:36:51;;;;;;;19.10;11.30;;;;;;;1.98;97.12;101453.14;107550;1256;80433;-55
2023/01/22 01:39:26;;;;;;;19.10;11.80;;;;;;;1.97;97.05;101455.02;107558;1254;81465;-56
2023/01/22 01:42:02;;;;;;;19.80;12.90;;;;;;;1.98;97.11;101456.90;107581;1254;99095;-55
2023/01/22 01:44:34;;;;;;;17.90;11.40;;;;;;;2.04;97.04;101458.55;107556;1255;89093;-55
2023/01/22 01:47:33;;;;;;;17.40;11.70;;;;;;;2.05;97.10;101457.44;107536;1256;93747;-55
2023/01/22 01:50:10;;;;;;;18.50;11.30;;;;;;;2.01;97.09;101456.46;107539;1254;80445;-55
2023/01/22 01:52:45;;;;;;;17.20;10.80;;;;;;;2.07;96.92;101460.35;107594;1256;82384;-54
2023/01/22 01:55:24;;;;;;;18.10;11.40;;;;;;;2.08;96.94;101464.32;107545;1254;98236;-54
2023/01/22 01:58:05;;;;;;;18.00;11.20;;;;;;;2.11;96.78;101471.02;107562;1255;87722;-55
2023/01/22 02:00:43;;;;;;;18.90;12.70;;;;;;;2.08;96.82;101469.14;107563;1253;93509;-58
2023/01/22 02:03:19;;;;;;;19.30;12.40;;;;;;;2.13;96.76;101471.58;107636;1255;80426;-57
2023/01/22 02:05:56;;;;;;;16.80;11.30;;;;;;;2.10;96.75;101473.58;107676;1254;83171;-57
2023/01/22 02:08:32;;;;;;;18.20;11.50;;;;;;;2.03;96.95;101475.20;107638;1255;97945;-58
2023/01/22 02:11:11;;;;;;;17.30;10.70;;;;;;;1.99;96.83;101479.05;107651;1255;88357;-55
2023/01/22 02:13:55;;;;;;;14.50;10.10;;;;;;;1.99;96.83;101484.02;107526;1256;93732;-56
2023/01/22 02:16:33;;;;;;;16.60;10.50;;;;;;;2.01;96.80;101484.94;107620;1256;81678;-56
2023/01/22 02:19:08;;;;;;;16.80;10.20;;;;;;;1.91;96.85;101489.20;107620;1254;82551;-57
2023/01/22 02:21:44;;;;;;;19.60;12.00;;;;;;;1.88;96.90;101491.71;107666;1254;97871;-58
2023/01/22 02:24:24;;;;;;;19.90;11.60;;;;;;;1.86;96.82;101493.31;107690;1256;89198;-55
2023/01/22 02:27:03;;;;;;;19.00;11.60;;;;;;;1.89;96.87;101492.69;107588;1253;95074;-54
2023/01/22 02:29:41;;;;;;;19.70;12.00;;;;;;;1.90;96.96;101489.04;107633;1256;81754;-56
2023/01/22 02:32:14;;;;;;;18.00;10.50;;;;;;;1.95;96.77;101485.74;107563;1254;82766;-56
2023/01/22 02:34:53;;;;;;;17.20;10.90;;;;;;;1.93;96.86;101485.28;107560;1254;99785;-56
2023/01/22 02:37:29;;;;;;;18.80;12.20;;;;;;;1.93;96.99;101482.63;107533;1256;89158;-55
2023/01/22 02:40:05;;;;;;;19.20;11.80;;;;;;;2.01;96.82;101493.81;107573;1254;95714;-55
2023/01/22 02:42:41;;;;;;;17.80;11.80;;;;;;;2.00;96.81;101492.63;107582;1258;81335;-55
2023/01/22 02:45:18;;;;;;;18.80;11.70;;;;;;;1.98;96.84;101499.17;107543;1254;80285;-53
2023/01/22 02:47:53;;;;;;;19.00;12.40;;;;;;;1.93;96.83;101499.73;107580;1253;98282;-53
2023/01/22 02:50:27;;;;;;;21.10;13.60;;;;;;;1.92;96.74;101498.16;107532;1254;88520;-57
2023/01/22 02:53:05;;;;;;;19.30;11.90;;;;;;;1.95;96.86;101505.61;107577;1254;93722;-56
2023/01/22 02:55:43;;;;;;;17.10;11.10;;;;;;;1.93;96.79;101505.19;107563;1254;80699;-56
2023/01/22 02:58:20;;;;;;;18.10;10.40;;;;;;;1.90;96.83;101507.55;107542;1254;83309;-57
2023/01/22 03:00:54;;;;;;;19.30;12.30;;;;;;;1.81;97.08;101504.24;107586;1255;99614;-56
2023/01/22 03:03:29;;;;;;;16.70;11.30;;;;;;;1.82;96.99;101503.30;107541;1253;89048;-55
2023/01/22 03:06:05;;;;;;;18.90;12.10;;;;;;;1.82;97.11;101501.17;107588;1256;96571;-57
2023/01/22 03:08:44;;;;;;;20.70;12.70;;;;;;;1.86;96.96;101497.70;107619;1257;80484;-58
2023/01/22 03:11:19;;;;;;;15.80;11.10;;;;;;;1.86;96.74;101498.81;107605;1254;82093;-55
2023/01/22 03:22:40;;;;;;;14.80;10.40;;;;;;;1.78;96.96;101519.36;107565;1256;81703;-55
2023/01/22 03:25:26;;;;;;;19.30;12.50;;;;;;;1.79;96.99;101523.94;107644;1256;80857;-54
2023/01/22 03:28:15;;;;;;;15.40;10.10;;;;;;;1.83;96.85;101529.86;107618;1254;99329;-54
2023/01/22 03:30:50;;;;;;;18.40;11.40;;;;;;;1.85;96.89;101532.44;107502;1254;86571;-58
2023/01/22 03:33:28;;;;;;;18.30;11.10;;;;;;;1.91;96.87;101534.84;107602;1255;94838;-56
2023/01/22 03:36:09;;;;;;;15.80;11.10;;;;;;;1.95;96.75;101539.70;107542;1254;81309;-56
2023/01/22 03:38:45;;;;;;;16.70;11.20;;;;;;;1.95;96.63;101541.66;107609;1254;82790;-56
2023/01/22 03:41:24;;;;;;;17.50;11.90;;;;;;;1.96;96.69;101542.11;107570;1257;96628;-58
2023/01/22 03:44:02;;;;;;;16.50;11.10;;;;;;;1.91;96.90;101545.81;107558;1254;88930;-56
2023/01/22 03:46:44;;;;;;;14.40;10.50;;;;;;;1.90;96.76;101549.11;107218;1253;451762;-54
2023/01/22 03:49:26;;;;;;;16.90;11.40;;;;;;;1.91;96.64;101548.00;107583;1254;80917;-58
2023/01/22 03:52:06;;;;;;;16.10;10.80;;;;;;;1.90;96.86;101551.25;107568;1254;81471;-58
2023/01/22 03:54:46;;;;;;;19.00;11.40;;;;;;;1.88;96.76;101548.53;107608;1254;95428;-55
2023/01/22 03:57:27;;;;;;;18.90;12.00;;;;;;;1.84;96.99;101549.36;107556;1257;89974;-55
2023/01/22 04:00:06;;;;;;;19.00;11.60;;;;;;;1.87;96.84;101548.98;107569;1254;93947;-55
2023/01/22 04:02:48;;;;;;;16.30;10.60;;;;;;;1.90;96.72;101552.48;107582;1254;79908;-55
2023/01/22 04:05:22;;;;;;;18.50;11.10;;;;;;;1.89;96.63;101557.38;107626;1257;82527;-55
2023/01/22 04:07:58;;;;;;;16.70;10.80;;;;;;;1.84;96.77;101559.99;107606;1257;100184;-54
2023/01/22 04:10:36;;;;;;;17.00;11.20;;;;;;;1.84;96.70;101563.00;107587;1254;89283;-56
2023/01/22 04:13:13;;;;;;;16.40;11.00;;;;;;;1.88;96.85;101570.39;107623;1254;94277;-56
2023/01/22 04:15:51;;;;;;;15.80;10.50;;;;;;;1.89;96.68;101567.98;107650;1253;80133;-55
2023/01/22 04:18:31;;;;;;;18.80;12.30;;;;;;;1.92;96.80;101572.98;107650;1254;82455;-55
2023/01/22 04:21:06;;;;;;;19.70;11.30;;;;;;;1.91;96.78;101579.59;107614;1253;98281;-55
2023/01/22 04:23:47;;;;;;;16.80;11.50;;;;;;;1.91;96.83;101580.65;107602;1254;88892;-55
2023/01/22 04:26:22;;;;;;;19.30;11.50;;;;;;;1.93;96.78;101581.60;107602;1253;93591;-54
2023/01/22 04:28:54;;;;;;;15.30;10.00;;;;;;;1.92;96.62;101579.02;107509;1253;81965;-54
2023/01/22 04:31:29;;;;;;;17.10;10.70;;;;;;;1.85;96.81;101578.91;107368;1254;81656;-56
2023/01/22 04:34:06;;;;;;;17.80;11.00;;;;;;;1.82;96.83;101573.27;107522;1254;98703;-56
2023/01/22 04:36:43;;;;;;;17.70;11.30;;;;;;;1.83;96.69;101575.34;107511;1254;89158;-57
2023/01/22 04:39:27;;;;;;;17.70;10.50;;;;;;;1.82;96.78;101577.38;107466;1254;95154;-55
2023/01/22 04:42:04;;;;;;;17.30;11.10;;;;;;;1.85;96.84;101575.04;107469;1254;82105;-55
2023/01/22 04:44:41;;;;;;;17.20;10.90;;;;;;;1.87;96.70;101578.80;107494;1254;80046;-56
2023/01/22 04:47:21;;;;;;;18.10;11.00;;;;;;;1.84;96.75;101580.82;107465;1254;98891;-57
2023/01/22 04:49:58;;;;;;;16.10;10.70;;;;;;;1.86;96.60;101584.26;107498;1254;88669;-56
2023/01/22 04:52:39;;;;;;;17.10;11.70;;;;;;;1.88;96.78;101590.28;107491;1256;94032;-57
2023/01/22 04:55:12;;;;;;;18.30;12.00;;;;;;;1.85;96.84;101592.06;107519;1255;81918;-61
2023/01/22 04:57:54;;;;;;;17.40;11.40;;;;;;;1.83;96.75;101594.35;107521;1254;82699;-58
2023/01/22 05:00:33;;;;;;;16.40;10.70;;;;;;;1.82;96.64;101600.44;107493;1254;98181;-56
2023/01/22 05:03:10;;;;;;;15.50;10.70;;;;;;;1.83;96.80;101601.85;107482;1254;86407;-57
2023/01/22 05:05:51;;;;;;;15.30;10.50;;;;;;;1.79;96.80;101599.41;107530;1254;95588;-56
2023/01/22 05:08:27;;;;;;;14.10;10.30;;;;;;;1.78;96.73;101601.95;107497;1253;81630;-56
2023/01/22 05:11:02;;;;;;;16.70;10.70;;;;;;;1.83;96.74;101607.36;107603;1254;81552;-58
2023/01/22 05:13:38;;;;;;;15.70;10.40;;;;;;;1.82;96.70;101610.44;107556;1253;99096;-58
2023/01/22 05:16:14;;;;;;;16.80;10.90;;;;;;;1.84;96.59;101612.78;107532;1254;92163;-55
2023/01/22 05:18:47;;;;;;;16.70;11.00;;;;;;;1.83;96.54;101613.54;107485;1254;92708;-56
2023/01/22 05:21:22;;;;;;;14.70;10.40;;;;;;;1.80;96.54;101614.95;107524;1254;80234;-56
2023/01/22 05:23:58;;;;;;;15.10;10.30;;;;;;;1.80;96.64;101615.20;107469;1254;83508;-56
2023/01/22 05:26:36;;;;;;;17.90;11.50;;;;;;;1.85;96.62;101612.70;107494;1253;99012;-58
2023/01/22 05:29:13;;;;;;;15.90;11.00;;;;;;;1.86;96.51;101613.15;107483;1254;87726;-58
2023/01/22 05:31:48;;;;;;;13.80;9.90;;;;;;;1.81;96.52;101619.52;107467;1254;94517;-61
2023/01/22 05:34:29;;;;;;;18.50;11.00;;;;;;;1.74;96.71;101616.61;107522;1254;80764;-55
2023/01/22 05:37:06;;;;;;;16.70;11.50;;;;;;;1.74;96.66;101620.31;107511;1253;83036;-55
2023/01/22 05:39:40;;;;;;;15.50;10.60;;;;;;;1.73;96.53;101617.75;107464;1254;99267;-57
2023/01/22 05:42:20;;;;;;;19.40;11.80;;;;;;;1.73;96.64;101618.11;107494;1254;89676;-58
2023/01/22 05:44:53;;;;;;;15.30;10.10;;;;;;;1.74;96.65;101617.88;107488;1254;93749;-54
2023/01/22 05:47:35;;;;;;;16.70;10.90;;;;;;;1.70;96.56;101621.49;107445;1257;79555;-56
2023/01/22 05:50:13;;;;;;;14.20;10.30;;;;;;;1.72;96.73;101626.18;107487;1257;83764;-54
2023/01/22 05:52:55;;;;;;;16.40;10.50;;;;;;;1.74;96.58;101623.52;107493;1255;96489;-55
2023/01/22 05:55:36;;;;;;;15.00;10.20;;;;;;;1.78;96.64;101625.95;107507;1254;88816;-55
2023/01/22 05:58:11;;;;;;;14.60;11.00;;;;;;;1.75;96.70;101628.95;107471;1253;94023;-56
2023/01/22 06:00:53;;;;;;;17.20;11.20;;;;;;;1.69;96.77;101634.02;107518;1254;80814;-55
2023/01/22 06:03:32;;;;;;;15.00;10.70;;;;;;;1.72;96.66;101640.52;107503;1253;81184;-56
2023/01/22 06:06:07;;;;;;;16.90;10.30;;;;;;;1.79;96.49;101643.95;107517;1254;97667;-55
2023/01/22 06:08:40;;;;;;;15.50;10.70;;;;;;;1.77;96.43;101646.58;107507;1254;86798;-56
2023/01/22 06:11:15;;;;;;;17.70;11.50;;;;;;;1.74;96.44;101646.59;107534;1254;94030;-55
2023/01/22 06:13:49;;;;;;;17.10;10.80;;;;;;;1.77;96.43;101651.58;107575;1254;78817;-56
2023/01/22 06:16:24;;;;;;;15.20;10.70;;;;;;;1.79;96.47;101655.52;107552;1253;82367;-57
2023/01/22 06:18:57;;;;;;;15.70;9.70;;;;;;;1.75;96.49;101661.45;107527;1253;99432;-57
2023/01/22 06:21:38;;;;;;;13.60;9.60;;;;;;;1.76;96.39;101667.65;107534;1253;88409;-54
2023/01/22 06:24:14;;;;;;;17.00;10.20;;;;;;;1.70;96.41;101666.76;107467;1257;93954;-56
2023/01/22 06:26:50;;;;;;;13.90;9.40;;;;;;;1.70;96.35;101668.00;107458;1253;81644;-58
2023/01/22 06:29:25;;;;;;;17.90;11.40;;;;;;;1.74;96.29;101664.74;107479;1253;81731;-57
2023/01/22 06:31:58;;;;;;;15.10;10.20;;;;;;;1.74;96.25;101670.22;107471;1257;99354;-56
2023/01/22 06:34:37;;;;;;;16.40;11.20;;;;;;;1.73;96.32;101666.73;107475;1254;89338;-58
2023/01/22 06:37:11;;;;;;;18.30;11.00;;;;;;;1.81;96.16;101669.45;107537;1254;94376;-57
2023/01/22 06:39:49;;;;;;;16.30;9.80;;;;;;;1.87;96.02;101670.68;107500;1253;80561;-56
2023/01/22 06:42:26;;;;;;;15.10;10.90;;;;;;;1.81;95.96;101676.53;107440;1253;81374;-56
2023/01/22 06:45:06;;;;;;;16.00;11.20;;;;;;;1.79;96.04;101678.05;107490;1253;97953;-57
2023/01/22 06:47:42;;;;;;;14.20;10.10;;;;;;;1.81;96.02;101678.34;107559;1253;87092;-58
2023/01/22 06:50:17;;;;;;;16.90;11.40;;;;;;;1.78;96.06;101681.67;107503;1253;93945;-57
2023/01/22 06:52:56;;;;;;;14.40;10.00;;;;;;;1.82;95.98;101682.14;107557;1254;82067;-58
2023/01/22 06:55:40;;;;;;;16.00;11.00;;;;;;;1.80;96.00;101687.42;107501;1254;82473;-55
2023/01/22 06:58:20;;;;;;;15.30;11.00;;;;;;;1.78;95.99;101692.86;107515;1253;97398;-55
2023/01/22 07:01:00;;;;;;;15.80;10.20;;;;;;;1.75;96.03;101697.69;107493;1253;87938;-55
2023/01/22 07:03:40;;;;;;;16.10;11.60;;;;;;;1.79;96.14;101704.00;107494;1253;94708;-56
2023/01/22 07:06:17;;;;;;;16.60;11.00;;;;;;;1.82;96.02;101709.20;107462;1254;81774;-56
2023/01/22 07:08:56;;;;;;;15.20;10.60;;;;;;;1.83;95.96;101709.61;107513;1254;82596;-56
2023/01/22 07:11:31;;;;;;;15.60;11.30;;;;;;;1.88;95.88;101714.63;107510;1254;98192;-57
2023/01/22 07:14:05;;;;;;;16.80;11.10;;;;;;;1.89;95.88;101715.80;107519;1254;86428;-57
2023/01/22 07:16:41;;;;;;;16.10;11.90;;;;;;;1.84;95.74;101717.41;107490;1253;95280;-55
2023/01/22 07:19:18;;;;;;;14.90;10.10;;;;;;;1.85;95.71;101722.65;107431;1254;80864;-55
2023/01/22 07:21:53;;;;;;;16.20;9.70;;;;;;;1.85;95.70;101726.34;107485;1253;82121;-55
2023/01/22 07:24:30;;;;;;;17.60;10.80;;;;;;;1.86;95.74;101728.77;107476;1257;99524;-55
2023/01/22 07:27:09;;;;;;;16.70;11.30;;;;;;;1.88;95.71;101732.01;107427;1256;89209;-54
2023/01/22 07:29:43;;;;;;;16.90;11.90;;;;;;;1.90;95.48;101735.09;107417;1254;92815;-54
2023/01/22 07:32:25;;;;;;;16.70;11.00;;;;;;;1.93;95.45;101735.26;107443;1254;82035;-56
2023/01/22 07:35:06;;;;;;;16.60;11.40;;;;;;;1.93;95.57;101741.10;107460;1253;82169;-54
2023/01/22 07:37:42;;;;;;;16.70;11.10;;;;;;;1.92;95.45;101741.73;107480;1253;96550;-54
2023/01/22 07:40:18;;;;;;;15.90;10.70;;;;;;;1.91;95.46;101748.02;107514;1253;86392;-58
2023/01/22 07:42:55;;;;;;;17.50;12.40;;;;;;;1.92;95.44;101755.36;107545;1253;92945;-58
2023/01/22 07:45:32;;;;;;;15.70;10.70;;;;;;;1.91;95.46;101753.30;107534;1253;80470;-56
2023/01/22 07:48:09;;;;;;;16.90;12.40;;;;;;;1.88;95.39;101754.76;107521;1253;82899;-55
2023/01/22 07:50:42;;;;;;;18.00;12.30;;;;;;;1.94;95.43;101757.02;107536;1253;98893;-57
2023/01/22 07:53:17;;;;;;;18.30;12.00;;;;;;;1.96;95.34;101760.40;107525;1253;87983;-58
2023/01/22 07:55:59;;;;;;;17.70;11.40;;;;;;;2.02;95.39;101762.52;107530;1253;94513;-58
2023/01/22 07:58:33;;;;;;;16.10;11.00;;;;;;;1.96;95.33;101758.84;107480;1258;80709;-57
2023/01/22 08:01:09;;;;;;;16.60;11.70;;;;;;;2.00;95.23;101758.37;107632;1253;80255;-57
2023/01/22 08:03:44;;;;;;;18.90;12.50;;;;;;;1.97;95.21;101760.00;107465;1253;98031;-58
2023/01/22 08:06:20;;;;;;;15.50;11.60;;;;;;;1.97;95.16;101764.48;107531;1253;88505;-58
2023/01/22 08:08:53;;;;;;;22.50;12.90;;;;;;;1.92;95.13;101765.66;107502;1257;94675;-57
2023/01/22 08:11:25;;;;;;;17.90;12.10;;;;;;;1.93;95.01;101766.34;107466;1253;81510;-58
2023/01/22 08:14:03;;;;;;;20.40;13.10;;;;;;;1.94;94.93;101771.23;107486;1253;83468;-58
2023/01/22 08:16:45;;;;;;;16.50;11.40;;;;;;;1.94;94.94;101774.08;107466;1253;99667;-56
2023/01/22 08:19:17;;;;;;;18.20;12.30;;;;;;;1.94;94.89;101774.79;107463;1253;89042;-57
2023/01/22 08:21:58;;;;;;;18.60;12.40;;;;;;;2.00;94.92;101775.77;107486;1253;94317;-58
2023/01/22 08:24:39;;;;;;;17.30;11.70;;;;;;;1.98;94.96;101778.74;107505;1253;81644;-57
2023/01/22 08:27:16;;;;;;;18.80;12.90;;;;;;;1.99;94.94;101776.40;107521;1253;82823;-58
2023/01/22 08:29:50;;;;;;;18.70;12.60;;;;;;;2.02;94.86;101778.70;107507;1253;98381;-54
2023/01/22 08:32:26;;;;;;;18.50;12.80;;;;;;;2.08;94.68;101777.39;107486;1253;88312;-55
2023/01/22 08:35:04;;;;;;;23.70;15.30;;;;;;;2.08;94.70;101782.73;107493;1253;95286;-55
2023/01/22 08:37:42;;;;;;;21.10;13.20;;;;;;;2.10;94.83;101782.42;107534;1253;81137;-56
2023/01/22 08:40:20;;;;;;;20.10;14.10;;;;;;;2.13;94.82;101785.60;107550;1253;82650;-54
2023/01/22 08:42:59;;;;;;;21.40;14.20;;;;;;;2.18;94.89;101789.11;107493;1253;100489;-54
2023/01/22 08:45:36;;;;;;;19.60;13.50;;;;;;;2.20;94.46;101794.92;107548;1253;86867;-56
2023/01/22 08:48:16;;;;;;;21.60;13.90;;;;;;;2.15;94.41;101800.01;107500;1257;95019;-56
2023/01/22 08:50:59;;;;;;;20.30;14.00;;;;;;;2.13;94.30;101801.89;107513;1253;81161;-57
2023/01/22 08:53:33;;;;;;;21.60;14.90;;;;;;;2.14;94.23;101802.23;107567;1254;83006;-57
2023/01/22 08:56:08;;;;;;;20.50;13.50;;;;;;;2.15;94.25;101805.90;107535;1254;97710;-55
2023/01/22 08:58:44;;;;;;;22.40;14.70;;;;;;;2.17;94.12;101806.45;107486;1253;86976;-55
2023/01/22 09:01:23;;;;;;;20.90;13.60;;;;;;;2.22;94.33;101806.50;107478;1253;94625;-55
2023/01/22 09:04:04;;;;;;;19.80;12.60;;;;;;;2.19;94.19;101808.99;107481;1253;79454;-55
2023/01/22 09:06:41;;;;;;;20.10;13.40;;;;;;;2.10;94.04;101808.85;107466;1253;82946;-56
2023/01/22 09:09:27;;;;;;;20.90;13.40;;;;;;;2.08;94.06;101807.77;107438;1257;98455;-56
2023/01/22 09:11:58;;;;;;;;;;;;;;;2.11;94.18;101815.23;107503;1253;86239;-55
2023/01/22 09:14:30;;;;;;;19.00;12.80;;;;;;;2.14;94.11;101815.55;107467;1253;95270;-58
2023/01/22 09:17:03;;;;;;;20.50;13.00;;;;;;;2.22;93.93;101819.13;107439;1253;80817;-57
2023/01/22 09:19:39;;;;;;;22.50;14.20;;;;;;;2.23;93.98;101824.52;107493;1256;81824;-56
2023/01/22 09:22:19;;;;;;;20.80;13.00;;;;;;;2.27;93.84;101826.05;107478;1253;99678;-56
2023/01/22 09:24:55;;;;;;;19.10;12.90;;;;;;;2.24;93.86;101828.04;107522;1253;87455;-54
2023/01/22 09:27:30;;;;;;;20.50;13.10;;;;;;;2.28;93.88;101830.61;107429;1253;95877;-54
2023/01/22 09:30:08;;;;;;;20.10;12.80;;;;;;;2.33;93.95;101833.31;107528;1253;79936;-58
2023/01/22 09:32:51;;;;;;;22.40;14.30;;;;;;;2.40;93.81;101836.02;107474;1253;81006;-58
2023/01/22 09:35:30;;;;;;;21.50;13.70;;;;;;;2.39;93.57;101836.08;107503;1253;98792;-56
2023/01/22 09:38:05;;;;;;;22.00;13.00;;;;;;;2.37;93.51;101838.39;107501;1253;85811;-55
2023/01/22 09:40:48;;;;;;;21.80;13.40;;;;;;;2.35;93.39;101840.27;107518;1253;94024;-55
2023/01/22 09:43:35;;;;;;;22.10;13.00;;;;;;;2.31;93.27;101840.15;107547;1253;80176;-56
2023/01/22 09:46:22;;;;;;;21.10;13.20;;;;;;;2.28;92.91;101842.70;107549;1253;82279;-54
2023/01/22 09:49:01;;;;;;;20.70;13.00;;;;;;;2.28;93.19;101841.30;107458;1253;99274;-57
2023/01/22 09:51:36;;;;;;;20.10;12.30;;;;;;;2.28;93.09;101839.67;107516;1253;86792;-57
2023/01/22 09:54:11;;;;;;;19.50;12.90;;;;;;;2.29;92.89;101844.61;107501;1253;95221;-56
2023/01/22 09:56:49;;;;;;;21.30;13.10;;;;;;;2.29;93.13;101842.63;107438;1253;78630;-56
2023/01/22 09:59:26;;;;;;;20.20;13.30;;;;;;;2.27;92.89;101842.23;107518;1253;83432;-55
2023/01/22 10:02:20;;;;;;;21.80;13.30;;;;;;;2.27;92.82;101842.95;107498;1253;98269;-54
2023/01/22 10:04:58;;;;;;;19.30;12.60;;;;;;;2.28;92.90;101844.63;107473;1253;86848;-56
2023/01/22 10:07:52;;;;;;;17.50;12.10;;;;;;;2.36;92.86;101847.30;107469;1253;94722;-55
2023/01/22 10:10:32;;;;;;;19.80;12.80;;;;;;;2.40;92.85;101844.92;107529;1253;78927;-58
2023/01/22 10:13:22;;;;;;;20.70;12.50;;;;;;;2.41;92.75;101846.79;107481;1253;81695;-59
2023/01/22 10:15:59;;;;;;;20.80;13.00;;;;;;;2.40;92.56;101845.97;107519;1253;98808;-58
2023/01/22 10:18:42;;;;;;;23.30;14.10;;;;;;;2.40;92.23;101845.07;107511;1253;89585;-58
2023/01/22 10:21:20;;;;;;;20.80;13.70;;;;;;;2.33;92.37;101848.78;107495;1253;95298;-56
2023/01/22 10:24:03;;;;;;;19.90;12.90;;;;;;;2.30;92.67;101844.70;107473;1253;80158;-56
2023/01/22 10:26:43;;;;;;;21.80;14.00;;;;;;;2.30;92.42;101845.39;107604;1253;82533;-58
2023/01/22 10:29:23;;;;;;;23.00;14.00;;;;;;;2.27;92.41;101845.45;107558;1253;100126;-55
2023/01/22 10:32:03;;;;;;;22.00;14.20;;;;;;;2.31;92.59;101844.08;107555;1253;87819;-56
2023/01/22 10:34:57;;;;;;;21.60;13.50;;;;;;;2.34;92.40;101841.19;107598;1253;96253;-55
2023/01/22 10:37:44;;;;;;;21.20;13.10;;;;;;;2.38;92.41;101837.59;107425;1253;81957;-55
2023/01/22 10:40:29;;;;;;;22.60;13.30;;;;;;;2.36;92.46;101840.36;107518;1253;80822;-55
2023/01/22 10:43:17;;;;;;;23.60;14.40;;;;;;;2.37;92.15;101833.40;107389;1255;97553;-53
2023/01/22 10:45:58;;;;;;;23.30;14.40;;;;;;;2.38;92.25;101834.19;107489;1256;87059;-53
2023/01/22 10:48:33;;;;;;;22.90;13.50;;;;;;;2.34;92.12;101836.60;107483;1257;93475;-55
2023/01/22 10:51:26;;;;;;;21.00;13.70;;;;;;;2.31;92.12;101833.77;107464;1253;80573;-53
2023/01/22 10:54:18;;;;;;;24.00;15.00;;;;;;;2.33;92.00;101834.20;107291;1253;83019;-55
2023/01/22 10:57:05;;;;;;;23.30;13.40;;;;;;;2.35;92.35;101834.19;107397;1259;98763;-52
2023/01/22 10:59:47;;;;;;;21.50;13.60;;;;;;;2.36;92.04;101833.08;107424;1253;88268;-54
2023/01/22 11:02:28;;;;;;;25.30;14.30;;;;;;;2.33;92.06;101831.88;107463;1257;95606;-54
2023/01/22 11:05:19;;;;;;;25.50;15.00;;;;;;;2.33;92.14;101832.95;107513;1253;80840;-54
2023/01/22 11:07:59;;;;;;;24.60;14.30;;;;;;;2.39;92.31;101829.52;107446;1253;80722;-55
2023/01/22 11:10:41;;;;;;;26.60;14.80;;;;;;;2.45;92.10;101827.31;107510;1253;98998;-55
2023/01/22 11:13:19;;;;;;;27.60;15.90;;;;;;;2.57;92.32;101823.70;107531;1253;88047;-55
2023/01/22 11:16:05;;;;;;;23.70;15.00;;;;;;;2.59;92.10;101827.98;107550;1257;95977;-56
2023/01/22 11:18:44;;;;;;;25.20;15.40;;;;;;;2.62;92.10;101835.40;107434;1253;78062;-56
2023/01/22 11:21:26;;;;;;;25.40;14.30;;;;;;;2.57;92.03;101835.06;107503;1253;81882;-56
2023/01/22 11:24:22;;;;;;;28.40;16.40;;;;;;;2.52;91.95;101835.74;107498;1253;98487;-56
2023/01/22 11:27:40;;;;;;;27.20;15.50;;;;;;;2.45;91.85;101834.83;107487;1253;89547;-54
2023/01/22 11:31:01;;;;;;;26.10;15.20;;;;;;;2.41;91.94;101831.55;107533;1257;93547;-54
2023/01/22 11:34:01;;;;;;;29.80;16.10;;;;;;;2.38;92.07;101826.73;107460;1253;79287;-56
2023/01/22 11:36:49;;;;;;;26.70;15.20;;;;;;;2.40;91.88;101823.97;107516;1253;81314;-58
2023/01/22 11:39:44;;;;;;;25.60;14.60;;;;;;;2.29;91.65;101826.27;107585;1253;99578;-55
2023/01/22 11:42:36;;;;;;;27.30;15.90;;;;;;;2.22;91.63;101823.73;107437;1253;88429;-55
2023/01/22 11:45:32;;;;;;;28.10;16.10;;;;;;;2.21;91.67;101823.83;107015;1253;651555;-54
2023/01/22 11:48:37;;;;;;;24.90;14.50;;;;;;;2.23;91.65;101819.23;107466;1253;80866;-54
2023/01/22 11:51:20;;;;;;;27.80;14.60;;;;;;;2.28;91.59;101818.34;107495;1253;82255;-58
2023/01/22 11:54:13;;;;;;;26.30;15.40;;;;;;;2.37;91.66;101815.77;107496;1253;98157;-58
2023/01/22 11:57:04;;;;;;;24.50;13.30;;;;;;;2.37;91.60;101814.54;107500;1253;88973;-55
2023/01/22 11:59:57;;;;;;;28.20;15.30;;;;;;;2.33;91.51;101817.48;107482;1253;93551;-55
2023/01/22 12:03:00;;;;;;;29.10;16.50;;;;;;;2.37;91.52;101817.35;107484;1253;81700;-55
2023/01/22 12:05:43;;;;;;;24.90;14.50;;;;;;;2.42;91.59;101819.17;107558;1253;80770;-54
2023/01/22 12:08:30;;;;;;;26.90;15.10;;;;;;;2.43;91.62;101817.36;107463;1257;99961;-54
2023/01/22 12:11:33;;;;;;;25.40;15.70;;;;;;;2.45;91.68;101820.61;107549;1253;89113;-58
2023/01/22 12:14:31;;;;;;;26.60;15.30;;;;;;;2.42;91.67;101820.40;107472;1257;95548;-58